createdAt,value
2023-05-02T00:00:24.517Z,100711.69
2023-05-02T00:02:51.141Z,100718.50
2023-05-02T00:05:17.597Z,100714.44
2023-05-02T00:07:43.955Z,100720.13
2023-05-02T00:10:10.709Z,100723.50
2023-05-02T00:12:37.057Z,100727.25
2023-05-02T00:15:03.472Z,100729.34
2023-05-02T00:17:29.816Z,100732.44
2023-05-02T00:19:56.568Z,100741.59
2023-05-02T00:22:22.942Z,100741.50
2023-05-02T00:24:49.245Z,100744.97
2023-05-02T00:27:15.556Z,100749.16
2023-05-02T00:29:41.964Z,100755.72
2023-05-02T00:32:08.276Z,100751.22
2023-05-02T00:34:34.621Z,100755.72
2023-05-02T00:37:00.914Z,100766.31
2023-05-02T00:39:27.268Z,100759.81
2023-05-02T00:41:56.818Z,100765.88
2023-05-02T00:44:23.166Z,100769.50
2023-05-02T00:46:49.990Z,100769.75
2023-05-02T00:49:16.340Z,100779.09
2023-05-02T00:51:43.336Z,100777.59
2023-05-02T00:54:09.653Z,100782.28
2023-05-02T00:56:35.959Z,100779.22
2023-05-02T00:59:03.159Z,100783.16
2023-05-02T01:01:36.606Z,100784.06
2023-05-02T01:04:12.039Z,100785.25
2023-05-02T01:06:41.612Z,100779.00
2023-05-02T01:09:10.853Z,100790.41
2023-05-02T01:11:49.874Z,100789.13
2023-05-02T01:14:17.076Z,100776.59
2023-05-02T01:16:45.592Z,100788.59
2023-05-02T01:19:32.668Z,100797.03
2023-05-02T01:21:59.995Z,100791.81
2023-05-02T01:24:29.614Z,100786.63
2023-05-02T01:27:07.274Z,100805.94
2023-05-02T01:29:34.535Z,100803.56
2023-05-02T01:32:02.932Z,100806.59
2023-05-02T01:34:29.979Z,100816.56
2023-05-02T01:36:57.728Z,100823.84
2023-05-02T01:39:24.824Z,100825.28
2023-05-02T01:41:53.502Z,100826.50
2023-05-02T01:44:21.692Z,100825.22
2023-05-02T01:46:48.642Z,100818.56
2023-05-02T01:49:15.623Z,100813.94
2023-05-02T01:51:45.138Z,100821.63
2023-05-02T01:54:12.744Z,100819.25
2023-05-02T01:56:39.720Z,100823.50
2023-05-02T01:59:10.473Z,100823.84
2023-05-02T02:01:37.961Z,100827.91
2023-05-02T02:04:06.386Z,100823.13
2023-05-02T02:06:33.221Z,100832.91
2023-05-02T02:08:59.937Z,100823.31
2023-05-02T02:11:52.735Z,100832.03
2023-05-02T02:14:21.365Z,100832.47
2023-05-02T02:16:48.512Z,100829.28
2023-05-02T02:19:15.469Z,100844.25
2023-05-02T02:21:46.924Z,100829.91
2023-05-02T02:24:13.891Z,100825.56
2023-05-02T02:26:40.411Z,100823.53
2023-05-02T02:29:06.700Z,100826.84
2023-05-02T02:31:34.380Z,100829.69
2023-05-02T02:34:01.473Z,100834.03
2023-05-02T02:36:27.728Z,100838.72
2023-05-02T02:39:00.762Z,100842.28
2023-05-02T02:41:28.066Z,100844.97
2023-05-02T02:44:05.835Z,100851.25
2023-05-02T02:46:49.155Z,100844.19
2023-05-02T02:49:27.057Z,100844.22
2023-05-02T02:51:58.149Z,100844.13
2023-05-02T02:54:31.838Z,100861.94
2023-05-02T02:57:04.466Z,100878.22
2023-05-02T02:59:35.354Z,100876.34
2023-05-02T03:02:08.796Z,100880.47
2023-05-02T03:04:43.558Z,100877.63
2023-05-02T03:07:10.047Z,100879.78
2023-05-02T03:09:46.044Z,100875.84
2023-05-02T03:12:12.586Z,100889.44
2023-05-02T03:14:39.437Z,100885.38
2023-05-02T03:17:08.159Z,100895.91
2023-05-02T03:19:34.807Z,100891.84
2023-05-02T03:22:01.108Z,100892.75
2023-05-02T03:24:30.169Z,100892.66
2023-05-02T03:26:56.663Z,100894.81
2023-05-02T03:29:23.298Z,100906.38
2023-05-02T03:31:49.661Z,100906.97
2023-05-02T03:34:16.229Z,100911.25
2023-05-02T03:36:42.588Z,100916.03
2023-05-02T03:39:09.146Z,100911.97
2023-05-02T03:41:35.499Z,100919.03
2023-05-02T03:44:01.796Z,100927.81
2023-05-02T03:46:28.132Z,100931.53
2023-05-02T03:48:54.436Z,100930.09
2023-05-02T03:51:20.809Z,100933.50
2023-05-02T03:53:47.133Z,100935.25
2023-05-02T03:56:17.203Z,100932.94
2023-05-02T03:58:43.561Z,100944.63
2023-05-02T04:01:16.466Z,100937.94
2023-05-02T04:03:43.050Z,100948.97
2023-05-02T04:06:09.661Z,100955.16
2023-05-02T04:08:36.923Z,100948.81
2023-05-02T04:11:03.240Z,100955.66
2023-05-02T04:13:29.604Z,100960.03
2023-05-02T04:15:56.345Z,100965.63
2023-05-02T04:18:22.640Z,100968.81
2023-05-02T04:20:48.934Z,100971.22
2023-05-02T04:23:15.238Z,100983.19
2023-05-02T04:25:41.518Z,100984.03
2023-05-02T04:28:07.810Z,100989.69
2023-05-02T04:30:34.212Z,100985.91
2023-05-02T04:33:00.630Z,100987.97
2023-05-02T04:35:26.951Z,100996.28
2023-05-02T04:37:53.268Z,100996.28
2023-05-02T04:40:19.556Z,101000.13
2023-05-02T04:42:46.170Z,101001.34
2023-05-02T04:45:12.512Z,101008.81
2023-05-02T04:47:39.892Z,101006.31
2023-05-02T04:50:06.923Z,101015.63
2023-05-02T04:52:33.214Z,101028.81
2023-05-02T04:54:59.588Z,101025.13
2023-05-02T04:57:25.989Z,101032.84
2023-05-02T04:59:52.322Z,101038.88
2023-05-02T05:02:18.737Z,101040.59
2023-05-02T05:04:45.973Z,101046.94
2023-05-02T05:07:12.476Z,101042.44
2023-05-02T05:09:38.886Z,101050.19
2023-05-02T05:12:05.271Z,101057.41
2023-05-02T05:14:31.828Z,101069.13
2023-05-02T05:16:58.475Z,101071.16
2023-05-02T05:19:24.881Z,101078.00
2023-05-02T05:21:51.227Z,101090.16
2023-05-02T05:24:17.588Z,101092.59
2023-05-02T05:26:43.925Z,101087.91
2023-05-02T05:29:10.504Z,101100.25
2023-05-02T05:31:37.086Z,101101.59
2023-05-02T05:34:04.494Z,101095.13
2023-05-02T05:36:31.433Z,101092.72
2023-05-02T05:38:57.740Z,101100.34
2023-05-02T05:41:24.646Z,101093.25
2023-05-02T05:43:50.992Z,101108.41
2023-05-02T05:46:17.287Z,101097.13
2023-05-02T05:48:43.637Z,101110.00
2023-05-02T05:51:09.957Z,101123.16
2023-05-02T05:53:36.351Z,101116.94
2023-05-02T05:56:12.817Z,101121.34
2023-05-02T05:58:39.696Z,101107.81
2023-05-02T06:01:06.226Z,101122.78
2023-05-02T06:03:32.999Z,101133.97
2023-05-02T06:05:59.874Z,101139.53
2023-05-02T06:08:26.293Z,101127.19
2023-05-02T06:10:52.643Z,101146.00
2023-05-02T06:13:18.964Z,101153.03
2023-05-02T06:15:45.777Z,101148.84
2023-05-02T06:18:12.268Z,101165.38
2023-05-02T06:20:38.655Z,101163.69
2023-05-02T06:23:04.920Z,101166.69
2023-05-02T06:25:32.893Z,101146.53
2023-05-02T06:27:59.371Z,101165.34
2023-05-02T06:30:26.943Z,101174.69
2023-05-02T06:32:53.354Z,101176.81
2023-05-02T06:35:19.737Z,101179.91
2023-05-02T06:37:46.164Z,101189.41
2023-05-02T06:40:13.479Z,101185.91
2023-05-02T06:42:39.768Z,101194.94
2023-05-02T06:45:06.334Z,101203.09
2023-05-02T06:47:32.811Z,101203.69
2023-05-02T06:49:59.319Z,101215.59
2023-05-02T06:52:25.927Z,101219.28
2023-05-02T06:54:52.212Z,101221.47
2023-05-02T06:57:18.543Z,101228.94
2023-05-02T06:59:44.891Z,101221.91
2023-05-02T07:02:11.283Z,101233.97
2023-05-02T07:04:37.704Z,101234.38
2023-05-02T07:07:04.081Z,101229.22
2023-05-02T07:09:30.453Z,101242.19
2023-05-02T07:11:56.740Z,101246.91
2023-05-02T07:14:23.031Z,101247.19
2023-05-02T07:16:49.455Z,101257.84
2023-05-02T07:19:15.835Z,101263.66
2023-05-02T07:21:42.149Z,101255.75
2023-05-02T07:24:08.524Z,101250.69
2023-05-02T07:26:34.929Z,101257.16
2023-05-02T07:29:01.317Z,101268.34
2023-05-02T07:31:27.639Z,101267.94
2023-05-02T07:33:53.981Z,101274.31
2023-05-02T07:36:20.504Z,101272.53
2023-05-02T07:38:46.843Z,101278.38
2023-05-02T07:41:13.782Z,101284.22
2023-05-02T07:43:40.096Z,101285.09
2023-05-02T07:46:06.621Z,101262.72
2023-05-02T07:48:33.035Z,101271.47
2023-05-02T07:51:06.050Z,101288.91
2023-05-02T07:53:32.386Z,101303.25
2023-05-02T07:55:58.675Z,101294.63
2023-05-02T07:58:25.050Z,101296.97
2023-05-02T08:00:51.361Z,101300.25
2023-05-02T08:03:17.732Z,101287.59
2023-05-02T08:05:44.097Z,101308.91
2023-05-02T08:08:10.441Z,101322.31
2023-05-02T08:10:36.773Z,101334.56
2023-05-02T08:13:03.104Z,101328.84
2023-05-02T08:15:30.297Z,101329.00
2023-05-02T08:17:56.609Z,101330.72
2023-05-02T08:20:23.166Z,101346.38
2023-05-02T08:22:50.411Z,101345.88
2023-05-02T08:25:16.737Z,101345.78
2023-05-02T08:27:43.018Z,101354.28
2023-05-02T08:30:09.472Z,101365.41
2023-05-02T08:32:37.068Z,101376.09
2023-05-02T08:35:03.576Z,101371.47
2023-05-02T08:37:29.962Z,101364.00
2023-05-02T08:39:56.314Z,101380.84
2023-05-02T08:42:22.952Z,101375.44
2023-05-02T08:44:49.823Z,101385.25
2023-05-02T08:47:16.347Z,101386.78
2023-05-02T08:49:43.486Z,101404.91
2023-05-02T08:52:12.069Z,101410.28
2023-05-02T08:54:38.914Z,101438.16
2023-05-02T08:57:05.604Z,101432.59
2023-05-02T08:59:31.997Z,101445.78
2023-05-02T09:02:06.167Z,101449.47
2023-05-02T09:04:34.654Z,101451.28
2023-05-02T09:07:01.485Z,101456.66
2023-05-02T09:09:29.041Z,101456.78
2023-05-02T09:11:55.485Z,101467.44
2023-05-02T09:14:21.896Z,101473.72
2023-05-02T09:16:48.244Z,101485.66
2023-05-02T09:19:23.919Z,101487.13
2023-05-02T09:21:50.302Z,101475.84
2023-05-02T09:24:20.556Z,101487.00
2023-05-02T09:27:16.136Z,101487.97
2023-05-02T09:29:45.812Z,101498.16
2023-05-02T09:32:12.147Z,101500.69
2023-05-02T09:34:39.345Z,101505.28
2023-05-02T09:37:06.283Z,101517.41
2023-05-02T09:39:32.734Z,101519.94
2023-05-02T09:44:26.944Z,101502.34
2023-05-02T09:46:54.190Z,101533.13
2023-05-02T09:49:38.807Z,101533.34
2023-05-02T09:52:31.282Z,101534.38
2023-05-02T09:54:57.881Z,101543.19
2023-05-02T09:57:39.245Z,101524.84
2023-05-02T10:00:05.971Z,101537.56
2023-05-02T10:02:32.510Z,101536.78
2023-05-02T10:05:00.459Z,101552.81
2023-05-02T10:07:27.064Z,101542.38
2023-05-02T10:09:54.466Z,101555.78
2023-05-02T10:12:23.357Z,101559.94
2023-05-02T10:14:53.340Z,101562.31
2023-05-02T10:17:28.167Z,101572.50
2023-05-02T10:19:59.966Z,101574.56
2023-05-02T10:22:26.932Z,101573.72
2023-05-02T10:24:53.795Z,101584.97
2023-05-02T10:27:20.247Z,101590.13
2023-05-02T10:29:46.965Z,101594.59
2023-05-02T10:32:14.383Z,101577.78
2023-05-02T10:34:41.457Z,101584.03
2023-05-02T10:37:07.776Z,101593.94
2023-05-02T10:39:34.149Z,101601.84
2023-05-02T10:42:02.182Z,101593.59
2023-05-02T10:44:35.279Z,101608.69
2023-05-02T10:47:01.806Z,101607.59
2023-05-02T10:49:29.741Z,101595.88
2023-05-02T10:51:56.070Z,101610.28
2023-05-02T10:54:23.644Z,101607.53
2023-05-02T10:56:59.144Z,101604.25
2023-05-02T10:59:41.515Z,101616.41
2023-05-02T11:02:27.965Z,101608.66
2023-05-02T11:05:07.155Z,101603.34
2023-05-02T11:07:37.297Z,101611.41
2023-05-02T11:10:18.615Z,101623.47
2023-05-02T11:12:46.637Z,101631.97
2023-05-02T11:15:13.519Z,101637.16
2023-05-02T11:17:58.363Z,101636.13
2023-05-02T11:20:24.894Z,101643.47
2023-05-02T11:22:51.501Z,101646.34
2023-05-02T11:25:37.037Z,101650.22
2023-05-02T11:28:04.493Z,101664.81
2023-05-02T11:30:37.953Z,101656.19
2023-05-02T11:33:04.453Z,101672.81
2023-05-02T11:35:34.487Z,101665.47
2023-05-02T11:38:02.990Z,101668.66
2023-05-02T11:40:29.666Z,101679.47
2023-05-02T11:42:56.845Z,101680.50
2023-05-02T11:45:32.349Z,101663.03
2023-05-02T11:47:58.763Z,101671.97
2023-05-02T11:50:25.972Z,101668.69
2023-05-02T11:52:52.369Z,101694.84
2023-05-02T11:55:18.718Z,101698.06
2023-05-02T11:57:45.191Z,101701.50
2023-05-02T12:00:11.916Z,101705.06
2023-05-02T12:02:48.804Z,101713.41
2023-05-02T12:05:15.675Z,101715.19
2023-05-02T12:07:44.184Z,101726.38
2023-05-02T12:10:11.149Z,101701.03
2023-05-02T12:12:38.823Z,101720.59
2023-05-02T12:15:14.302Z,101726.31
2023-05-02T12:17:41.369Z,101743.44
2023-05-02T12:20:08.913Z,101745.06
2023-05-02T12:22:35.896Z,101733.06
2023-05-02T12:25:04.254Z,101747.84
2023-05-02T12:27:33.199Z,101748.66
2023-05-02T12:29:59.766Z,101759.91
2023-05-02T12:32:33.733Z,101742.94
2023-05-02T12:35:03.046Z,101766.56
2023-05-02T12:37:29.474Z,101761.25
2023-05-02T12:39:56.775Z,101772.81
2023-05-02T12:42:24.272Z,101764.13
2023-05-02T12:44:54.065Z,101764.63
2023-05-02T12:47:21.433Z,101768.09
2023-05-02T12:49:55.126Z,101749.28
2023-05-02T12:52:31.595Z,101766.06
2023-05-02T12:55:14.962Z,101770.09
2023-05-02T12:57:41.434Z,101770.13
2023-05-02T13:00:08.389Z,101786.06
2023-05-02T13:02:34.722Z,101788.09
2023-05-02T13:05:01.000Z,101781.56
2023-05-02T13:07:27.277Z,101785.81
2023-05-02T13:09:53.628Z,101783.19
2023-05-02T13:12:20.185Z,101787.97
2023-05-02T13:14:46.528Z,101777.66
2023-05-02T13:17:13.055Z,101785.69
2023-05-02T13:19:42.457Z,101795.72
2023-05-02T13:22:13.881Z,101782.81
2023-05-02T13:24:40.197Z,101786.22
2023-05-02T13:27:06.548Z,101796.59
2023-05-02T13:29:32.851Z,101791.78
2023-05-02T13:31:59.175Z,101796.00
2023-05-02T13:34:25.685Z,101796.78
2023-05-02T13:36:52.157Z,101792.28
2023-05-02T13:39:18.921Z,101786.00
2023-05-02T13:41:45.275Z,101807.31
2023-05-02T13:44:11.598Z,101802.59
2023-05-02T13:46:38.328Z,101800.66
2023-05-02T13:49:04.947Z,101799.72
2023-05-02T13:51:32.424Z,101807.75
2023-05-02T13:53:59.271Z,101813.56
2023-05-02T13:56:25.695Z,101814.13
2023-05-02T13:58:52.100Z,101814.00
2023-05-02T14:01:18.435Z,101818.53
2023-05-02T14:03:44.966Z,101813.78
2023-05-02T14:06:11.458Z,101806.00
2023-05-02T14:08:37.979Z,101813.66
2023-05-02T14:11:07.085Z,101818.88
2023-05-02T14:13:33.761Z,101824.03
2023-05-02T14:16:00.273Z,101827.13
2023-05-02T14:18:26.668Z,101827.75
2023-05-02T14:20:53.112Z,101837.66
2023-05-02T14:23:19.413Z,101835.09
2023-05-02T14:25:45.744Z,101834.09
2023-05-02T14:28:12.030Z,101837.25
2023-05-02T14:30:38.336Z,101843.00
2023-05-02T14:33:04.744Z,101845.59
2023-05-02T14:35:31.199Z,101835.75
2023-05-02T14:37:57.550Z,101831.56
2023-05-02T14:40:23.856Z,101822.53
2023-05-02T14:42:50.229Z,101833.66
2023-05-02T14:45:16.572Z,101825.63
2023-05-02T14:47:42.904Z,101823.69
2023-05-02T14:50:09.507Z,101840.56
2023-05-02T14:52:35.855Z,101835.97
2023-05-02T14:55:02.486Z,101839.03
2023-05-02T14:57:28.890Z,101838.53
2023-05-02T14:59:55.561Z,101833.34
2023-05-02T15:02:22.430Z,101826.91
2023-05-02T15:04:48.809Z,101821.75
2023-05-02T15:07:15.493Z,101835.84
2023-05-02T15:09:42.290Z,101843.09
2023-05-02T15:12:08.666Z,101844.00
2023-05-02T15:14:34.961Z,101845.38
2023-05-02T15:17:01.367Z,101833.13
2023-05-02T15:19:28.001Z,101843.09
2023-05-02T15:21:57.169Z,101846.31
2023-05-02T15:24:27.114Z,101841.13
2023-05-02T15:26:53.581Z,101834.59
2023-05-02T15:29:19.885Z,101831.28
2023-05-02T15:31:46.210Z,101840.22
2023-05-02T15:34:12.819Z,101849.19
2023-05-02T15:36:39.403Z,101832.91
2023-05-02T15:39:05.984Z,101847.22
2023-05-02T15:41:32.405Z,101848.59
2023-05-02T15:43:59.128Z,101857.91
2023-05-02T15:46:25.758Z,101862.03
2023-05-02T15:48:52.390Z,101858.25
2023-05-02T15:51:18.807Z,101863.53
2023-05-02T15:53:49.521Z,101868.94
2023-05-02T15:56:16.473Z,101874.31
2023-05-02T15:58:42.823Z,101880.28
2023-05-02T16:01:09.158Z,101884.78
2023-05-02T16:03:35.780Z,101884.53
2023-05-02T16:06:05.275Z,101878.78
2023-05-02T16:08:31.657Z,101882.81
2023-05-02T16:11:00.700Z,101890.63
2023-05-02T16:13:27.566Z,101884.06
2023-05-02T16:15:54.065Z,101888.91
2023-05-02T16:18:20.547Z,101896.03
2023-05-02T16:20:47.786Z,101892.91
2023-05-02T16:23:14.108Z,101895.22
2023-05-02T16:25:40.567Z,101899.34
2023-05-02T16:28:07.056Z,101899.81
2023-05-02T16:30:36.305Z,101897.06
2023-05-02T16:33:03.634Z,101902.78
2023-05-02T16:35:30.030Z,101895.09
2023-05-02T16:37:56.331Z,101902.44
2023-05-02T16:40:22.696Z,101901.84
2023-05-02T16:42:49.084Z,101898.41
2023-05-02T16:45:16.016Z,101903.00
2023-05-02T16:47:43.032Z,101890.28
2023-05-02T16:50:09.538Z,101896.34
2023-05-02T16:52:38.124Z,101902.66
2023-05-02T16:55:04.822Z,101905.56
2023-05-02T16:57:31.128Z,101901.50
2023-05-02T16:59:57.969Z,101911.06
2023-05-02T17:02:24.801Z,101910.72
2023-05-02T17:04:51.203Z,101905.97
2023-05-02T17:07:17.643Z,101914.22
2023-05-02T17:09:44.609Z,101918.16
2023-05-02T17:12:11.910Z,101900.09
2023-05-02T17:14:39.462Z,101911.03
2023-05-02T17:17:05.898Z,101919.97
2023-05-02T17:19:32.494Z,101916.06
2023-05-02T17:21:59.279Z,101917.31
2023-05-02T17:24:25.838Z,101921.13
2023-05-02T17:26:52.505Z,101909.94
2023-05-02T17:29:18.916Z,101909.63
2023-05-02T17:31:45.352Z,101923.09
2023-05-02T17:34:11.744Z,101923.03
2023-05-02T17:36:41.724Z,101927.63
2023-05-02T17:39:08.489Z,101930.22
2023-05-02T17:41:37.698Z,101911.31
2023-05-02T17:44:04.982Z,101939.34
2023-05-02T17:46:31.843Z,101929.50
2023-05-02T17:48:58.345Z,101950.22
2023-05-02T17:51:24.708Z,101947.50
2023-05-02T17:53:51.672Z,101950.22
2023-05-02T17:56:19.007Z,101944.91
2023-05-02T17:58:45.683Z,101952.84
2023-05-02T18:01:13.841Z,101948.00
2023-05-02T18:03:40.595Z,101950.69
2023-05-02T18:06:07.307Z,101954.22
2023-05-02T18:08:33.837Z,101947.13
2023-05-02T18:11:00.665Z,101950.09
2023-05-02T18:13:27.202Z,101961.91
2023-05-02T18:15:57.521Z,101949.41
2023-05-02T18:18:23.966Z,101950.44
2023-05-02T18:20:50.344Z,101954.00
2023-05-02T18:23:17.060Z,101958.63
2023-05-02T18:25:43.748Z,101963.59
2023-05-02T18:28:10.372Z,101961.56
2023-05-02T18:30:37.650Z,101955.56
2023-05-02T18:33:04.218Z,101964.25
2023-05-02T18:35:30.964Z,101967.47
2023-05-02T18:37:57.743Z,101963.25
2023-05-02T18:40:24.308Z,101962.78
2023-05-02T18:42:51.649Z,101965.53
2023-05-02T18:45:18.450Z,101962.25
2023-05-02T18:47:44.949Z,101962.47
2023-05-02T18:50:11.396Z,101969.22
2023-05-02T18:52:37.729Z,101960.28
2023-05-02T18:55:06.007Z,101970.50
2023-05-02T18:57:33.766Z,101975.19
2023-05-02T19:00:00.439Z,101974.94
2023-05-02T19:02:27.172Z,101968.75
2023-05-02T19:04:53.628Z,101982.50
2023-05-02T19:07:20.040Z,101976.31
2023-05-02T19:09:46.404Z,101978.53
2023-05-02T19:12:12.766Z,101985.50
2023-05-02T19:14:40.166Z,101992.59
2023-05-02T19:17:06.865Z,101993.47
2023-05-02T19:19:33.324Z,101989.16
2023-05-02T19:21:59.825Z,102002.16
2023-05-02T19:24:26.286Z,101992.84
2023-05-02T19:26:53.191Z,102006.34
2023-05-02T19:29:19.580Z,102003.50
2023-05-02T19:31:46.319Z,102007.50
2023-05-02T19:34:12.850Z,102013.91
2023-05-02T19:36:39.220Z,102012.16
2023-05-02T19:39:05.656Z,102007.81
2023-05-02T19:41:32.006Z,102018.19
2023-05-02T19:43:59.852Z,102008.63
2023-05-02T19:46:26.505Z,102010.06
2023-05-02T19:48:52.877Z,102019.66
2023-05-02T19:51:25.122Z,102019.66
2023-05-02T19:53:52.937Z,102017.56
2023-05-02T19:56:19.998Z,102013.84
2023-05-02T19:58:46.788Z,102021.25
2023-05-02T20:01:13.338Z,102023.53
2023-05-02T20:03:39.773Z,102016.31
2023-05-02T20:06:06.238Z,102018.56
2023-05-02T20:08:32.624Z,102019.56
2023-05-02T20:10:58.997Z,102029.56
2023-05-02T20:13:25.423Z,102019.22
2023-05-02T20:15:52.251Z,102019.06
2023-05-02T20:18:18.972Z,102022.00
2023-05-02T20:20:45.829Z,102031.66
2023-05-02T20:23:12.863Z,102037.66
2023-05-02T20:25:40.576Z,102046.19
2023-05-02T20:28:08.968Z,102042.84
2023-05-02T20:30:35.728Z,102044.22
2023-05-02T20:33:14.064Z,102022.63
2023-05-02T20:35:42.252Z,102036.81
2023-05-02T20:38:08.611Z,102041.81
2023-05-02T20:40:37.705Z,102035.69
2023-05-02T20:43:06.211Z,102042.97
2023-05-02T20:45:32.568Z,102045.03
2023-05-02T20:47:59.038Z,102044.09
2023-05-02T20:50:25.835Z,102040.72
2023-05-02T20:52:52.305Z,102044.44
2023-05-02T20:55:18.695Z,102045.25
2023-05-02T20:57:45.648Z,102049.44
2023-05-02T21:00:13.639Z,102050.44
2023-05-02T21:02:39.990Z,102048.81
2023-05-02T21:05:06.429Z,102046.41
2023-05-02T21:07:32.776Z,102051.25
2023-05-02T21:09:59.201Z,102057.56
2023-05-02T21:12:25.751Z,102047.06
2023-05-02T21:14:52.080Z,102050.63
2023-05-02T21:17:18.378Z,102054.66
2023-05-02T21:19:44.773Z,102050.28
2023-05-02T21:22:11.130Z,102054.34
2023-05-02T21:24:37.427Z,102060.78
2023-05-02T21:27:03.857Z,102059.97
2023-05-02T21:29:30.235Z,102038.97
2023-05-02T21:31:56.596Z,102065.63
2023-05-02T21:34:22.907Z,102068.53
2023-05-02T21:36:49.319Z,102056.09
2023-05-02T21:39:16.275Z,102054.34
2023-05-02T21:41:42.603Z,102055.94
2023-05-02T21:44:10.734Z,102057.72
2023-05-02T21:46:37.073Z,102055.94
2023-05-02T21:49:03.959Z,102060.94
2023-05-02T21:51:30.601Z,102058.19
2023-05-02T21:53:56.904Z,102062.38
2023-05-02T21:56:23.214Z,102057.56
2023-05-02T21:58:51.147Z,102058.03
2023-05-02T22:01:17.881Z,102052.22
2023-05-02T22:03:44.254Z,102061.09
2023-05-02T22:06:10.594Z,102054.97
2023-05-02T22:08:37.097Z,102061.56
2023-05-02T22:11:08.111Z,102069.97
2023-05-02T22:13:34.811Z,102073.69
2023-05-02T22:16:01.232Z,102072.72
2023-05-02T22:18:27.700Z,102073.53
2023-05-02T22:20:55.367Z,102074.66
2023-05-02T22:23:21.697Z,102082.72
2023-05-02T22:25:48.098Z,102081.41
2023-05-02T22:28:14.434Z,102081.09
2023-05-02T22:30:44.357Z,102084.47
2023-05-02T22:33:10.972Z,102080.13
2023-05-02T22:35:37.683Z,102087.22
2023-05-02T22:38:04.990Z,102083.31
2023-05-02T22:40:31.540Z,102080.06
2023-05-02T22:42:58.356Z,102087.81
2023-05-02T22:45:24.801Z,102095.41
2023-05-02T22:47:52.142Z,102094.47
2023-05-02T22:50:19.784Z,102100.13
2023-05-02T22:52:46.427Z,102094.63
2023-05-02T22:55:12.844Z,102098.53
2023-05-02T22:57:39.321Z,102103.72
2023-05-02T23:00:07.005Z,102094.50
2023-05-02T23:02:33.565Z,102105.47
2023-05-02T23:04:59.934Z,102110.94
2023-05-02T23:07:26.223Z,102116.13
2023-05-02T23:09:52.525Z,102105.00
2023-05-02T23:12:18.808Z,102096.03
2023-05-02T23:14:45.940Z,102094.13
2023-05-02T23:17:12.307Z,102098.47
2023-05-02T23:19:38.648Z,102102.63
2023-05-02T23:22:04.940Z,102095.69
2023-05-02T23:24:31.485Z,102108.75
2023-05-02T23:26:57.860Z,102099.53
2023-05-02T23:29:25.102Z,102101.59
2023-05-02T23:31:53.603Z,102099.97
2023-05-02T23:34:23.100Z,102111.25
2023-05-02T23:36:51.176Z,102100.69
2023-05-02T23:39:17.593Z,102116.50
2023-05-02T23:41:43.928Z,102113.78
2023-05-02T23:44:10.478Z,102112.88
2023-05-02T23:46:36.825Z,102110.78
2023-05-02T23:49:03.133Z,102113.34
2023-05-02T23:51:31.683Z,102121.22
2023-05-02T23:53:58.069Z,102108.78
2023-05-02T23:56:24.476Z,102112.56
2023-05-02T23:58:50.800Z,102113.38
